createdAt,value
2023-02-08T08:34:46.187Z,-5.40
2023-02-08T08:39:40.053Z,-5.20
2023-02-08T08:44:33.831Z,-4.90
2023-02-08T08:49:28.153Z,-4.60
2023-02-08T08:54:23.765Z,-4.20
2023-02-08T08:59:17.429Z,-3.70
2023-02-08T09:04:11.493Z,-3.60
2023-02-08T09:09:05.971Z,-3.30
2023-02-08T09:14:03.883Z,-3.40
2023-02-08T09:18:57.847Z,-3.40
2023-02-08T09:23:51.493Z,-3.40
2023-02-08T09:28:45.371Z,-3.30
2023-02-08T09:33:40.699Z,-3.10
2023-02-08T09:38:34.846Z,-2.90
2023-02-08T09:43:37.180Z,-2.60
2023-02-08T09:48:35.276Z,-2.60
2023-02-08T09:53:36.782Z,-2.40
2023-02-08T09:58:36.097Z,-2.30
2023-02-08T10:03:36.258Z,-2.20
2023-02-08T10:08:35.511Z,-2.20
2023-02-08T10:13:42.899Z,-2.00
2023-02-08T10:18:46.720Z,-1.80
2023-02-08T10:24:06.941Z,-1.50
2023-02-08T10:29:33.669Z,-1.30
2023-02-08T10:34:37.241Z,-1.20
2023-02-08T10:39:35.791Z,-1.00
2023-02-08T10:44:36.135Z,-0.90
2023-02-08T10:49:40.505Z,-0.80
2023-02-08T10:54:36.399Z,-0.50
2023-02-08T10:59:34.816Z,-0.20
2023-02-08T11:04:29.098Z,0.00
2023-02-08T11:09:25.946Z,-0.10
2023-02-08T11:14:27.122Z,0.20
2023-02-08T11:19:35.562Z,0.30
2023-02-08T11:24:36.105Z,0.50
2023-02-08T11:29:32.279Z,0.70
2023-02-08T11:34:28.325Z,0.90
2023-02-08T11:39:26.073Z,1.10
2023-02-08T11:44:24.760Z,1.00
2023-02-08T11:49:29.366Z,0.90
2023-02-08T11:54:41.647Z,0.90
2023-02-08T11:59:40.844Z,0.80
2023-02-08T12:04:37.182Z,0.90
2023-02-08T12:09:56.094Z,0.90
2023-02-08T12:15:02.142Z,0.60
2023-02-08T12:20:26.140Z,0.70
2023-02-08T12:25:30.162Z,0.80
2023-02-08T12:30:31.102Z,1.20
2023-02-08T12:36:04.205Z,1.50
2023-02-08T12:41:12.805Z,1.70
2023-02-08T12:46:27.967Z,1.80
2023-02-08T12:51:32.596Z,1.60
2023-02-08T12:56:29.947Z,1.40
2023-02-08T13:01:27.807Z,1.60
2023-02-08T13:06:28.644Z,1.60
2023-02-08T13:11:29.491Z,1.50
2023-02-08T13:16:26.677Z,1.70
2023-02-08T13:21:25.433Z,1.90
2023-02-08T13:26:26.691Z,1.90
2023-02-08T13:31:24.469Z,2.10
2023-02-08T13:36:25.689Z,2.00
2023-02-08T13:41:23.959Z,1.70
2023-02-08T13:46:19.649Z,1.50
2023-02-08T13:52:02.465Z,1.30
2023-02-08T13:56:58.013Z,1.20
2023-02-08T14:02:24.844Z,1.50
2023-02-08T14:07:28.993Z,1.60
2023-02-08T14:12:29.526Z,1.80
2023-02-08T14:17:27.377Z,2.00
2023-02-08T14:22:21.651Z,1.90
2023-02-08T14:27:22.815Z,2.00
2023-02-08T14:32:27.117Z,2.50
2023-02-08T14:37:31.138Z,3.10
2023-02-08T14:43:00.538Z,3.60
2023-02-08T14:48:15.644Z,3.40
2023-02-08T14:53:25.135Z,2.90
2023-02-08T14:58:32.418Z,2.40
2023-02-08T15:03:31.971Z,1.90
2023-02-08T15:08:26.608Z,1.60
2023-02-08T15:13:24.536Z,1.30
2023-02-08T15:18:22.373Z,1.20
2023-02-08T15:23:26.027Z,1.20
2023-02-08T15:28:21.448Z,1.20
2023-02-08T15:33:18.069Z,1.00
2023-02-08T15:38:18.066Z,0.90
2023-02-08T15:43:15.161Z,0.70
2023-02-08T15:48:09.616Z,0.60
2023-02-08T15:53:05.432Z,0.30
2023-02-08T15:58:02.705Z,0.20
2023-02-08T16:03:02.165Z,0.00
2023-02-08T16:07:57.012Z,-0.20
2023-02-08T16:12:54.385Z,-0.30
2023-02-08T16:17:48.971Z,-0.40
2023-02-08T16:22:44.556Z,-0.50
2023-02-08T16:27:38.133Z,-0.60
2023-02-08T16:32:34.889Z,-0.80
2023-02-08T16:37:31.400Z,-0.90
2023-02-08T16:42:30.862Z,-1.00
2023-02-08T16:47:29.153Z,-0.90
2023-02-08T16:52:22.841Z,-0.90
